sensor_id;sensor_type;location;lat;lon;timestamp;P1;durP1;ratioP1;P2;durP2;ratioP2
20456;SDS011;10387;51.102;6.848;2024-03-25T00:03:36;13.20;;;4.80;;
20456;SDS011;10387;51.102;6.848;2024-03-25T00:11:26;16.47;;;5.03;;
20456;SDS011;10387;51.102;6.848;2024-03-25T00:21:33;14.63;;;5.53;;
20456;SDS011;10387;51.102;6.848;2024-03-25T00:32:18;13.20;;;6.70;;
20456;SDS011;10387;51.102;6.848;2024-03-25T00:35:45;15.17;;;6.87;;
20456;SDS011;10387;51.102;6.848;2024-03-25T00:42:44;15.97;;;7.27;;
20456;SDS011;10387;51.102;6.848;2024-03-25T00:45:51;15.80;;;7.20;;
20456;SDS011;10387;51.102;6.848;2024-03-25T01:00:47;16.70;;;7.00;;
20456;SDS011;10387;51.102;6.848;2024-03-25T01:03:47;16.60;;;7.60;;
20456;SDS011;10387;51.102;6.848;2024-03-25T01:18:20;14.40;;;5.93;;
20456;SDS011;10387;51.102;6.848;2024-03-25T02:00:09;12.87;;;6.10;;
20456;SDS011;10387;51.102;6.848;2024-03-25T02:03:22;14.40;;;6.13;;
20456;SDS011;10387;51.102;6.848;2024-03-25T02:06:30;10.80;;;6.17;;
20456;SDS011;10387;51.102;6.848;2024-03-25T02:09:47;14.70;;;5.60;;
20456;SDS011;10387;51.102;6.848;2024-03-25T02:12:52;12.07;;;6.00;;
20456;SDS011;10387;51.102;6.848;2024-03-25T02:15:58;12.57;;;5.63;;
20456;SDS011;10387;51.102;6.848;2024-03-25T02:19:27;15.77;;;6.40;;
20456;SDS011;10387;51.102;6.848;2024-03-25T02:22:06;13.23;;;6.13;;
20456;SDS011;10387;51.102;6.848;2024-03-25T02:25:07;11.90;;;5.97;;
20456;SDS011;10387;51.102;6.848;2024-03-25T02:27:57;13.57;;;5.33;;
20456;SDS011;10387;51.102;6.848;2024-03-25T02:34:20;12.20;;;5.23;;
20456;SDS011;10387;51.102;6.848;2024-03-25T02:37:09;14.70;;;5.13;;
20456;SDS011;10387;51.102;6.848;2024-03-25T02:43:23;14.23;;;5.73;;
20456;SDS011;10387;51.102;6.848;2024-03-25T02:46:13;12.90;;;5.30;;
20456;SDS011;10387;51.102;6.848;2024-03-25T02:49:05;14.90;;;5.30;;
20456;SDS011;10387;51.102;6.848;2024-03-25T02:51:57;15.93;;;6.63;;
20456;SDS011;10387;51.102;6.848;2024-03-25T02:54:56;14.33;;;6.43;;
20456;SDS011;10387;51.102;6.848;2024-03-25T02:57:46;12.53;;;5.50;;
20456;SDS011;10387;51.102;6.848;2024-03-25T03:00:45;13.80;;;5.40;;
20456;SDS011;10387;51.102;6.848;2024-03-25T03:10:43;13.90;;;5.77;;
20456;SDS011;10387;51.102;6.848;2024-03-25T03:13:43;11.97;;;5.40;;
20456;SDS011;10387;51.102;6.848;2024-03-25T03:16:30;13.70;;;5.60;;
20456;SDS011;10387;51.102;6.848;2024-03-25T03:23:13;11.13;;;5.87;;
20456;SDS011;10387;51.102;6.848;2024-03-25T03:26:07;17.83;;;5.70;;
20456;SDS011;10387;51.102;6.848;2024-03-25T03:28:57;11.63;;;5.63;;
20456;SDS011;10387;51.102;6.848;2024-03-25T03:31:47;10.63;;;5.80;;
20456;SDS011;10387;51.102;6.848;2024-03-25T04:42:09;14.93;;;6.47;;
20456;SDS011;10387;51.102;6.848;2024-03-25T04:49:00;15.10;;;6.33;;
20456;SDS011;10387;51.102;6.848;2024-03-25T04:52:43;14.77;;;6.23;;
20456;SDS011;10387;51.102;6.848;2024-03-25T04:56:18;23.70;;;7.07;;
20456;SDS011;10387;51.102;6.848;2024-03-25T04:59:27;19.67;;;6.97;;
20456;SDS011;10387;51.102;6.848;2024-03-25T05:21:42;17.23;;;6.30;;
20456;SDS011;10387;51.102;6.848;2024-03-25T05:24:28;19.73;;;6.87;;
20456;SDS011;10387;51.102;6.848;2024-03-25T05:27:21;16.20;;;6.63;;
20456;SDS011;10387;51.102;6.848;2024-03-25T05:30:08;16.33;;;6.20;;
20456;SDS011;10387;51.102;6.848;2024-03-25T05:32:59;12.93;;;6.40;;
20456;SDS011;10387;51.102;6.848;2024-03-25T05:35:48;15.33;;;6.13;;
20456;SDS011;10387;51.102;6.848;2024-03-25T05:38:36;18.20;;;6.77;;
20456;SDS011;10387;51.102;6.848;2024-03-25T05:41:30;14.93;;;7.80;;
20456;SDS011;10387;51.102;6.848;2024-03-25T05:44:26;14.93;;;6.97;;
20456;SDS011;10387;51.102;6.848;2024-03-25T05:47:14;16.40;;;7.30;;
20456;SDS011;10387;51.102;6.848;2024-03-25T05:50:03;20.37;;;8.10;;
20456;SDS011;10387;51.102;6.848;2024-03-25T05:52:57;18.73;;;7.20;;
20456;SDS011;10387;51.102;6.848;2024-03-25T05:55:50;17.97;;;7.07;;
20456;SDS011;10387;51.102;6.848;2024-03-25T05:58:43;15.00;;;7.00;;
20456;SDS011;10387;51.102;6.848;2024-03-25T06:01:47;13.17;;;7.37;;
20456;SDS011;10387;51.102;6.848;2024-03-25T06:04:53;14.90;;;7.47;;
20456;SDS011;10387;51.102;6.848;2024-03-25T06:07:42;15.77;;;7.47;;
20456;SDS011;10387;51.102;6.848;2024-03-25T06:10:34;13.03;;;7.83;;
20456;SDS011;10387;51.102;6.848;2024-03-25T06:16:26;13.53;;;7.30;;
20456;SDS011;10387;51.102;6.848;2024-03-25T06:22:34;15.80;;;8.13;;
20456;SDS011;10387;51.102;6.848;2024-03-25T06:25:23;15.07;;;7.57;;
20456;SDS011;10387;51.102;6.848;2024-03-25T06:28:19;13.63;;;6.73;;
20456;SDS011;10387;51.102;6.848;2024-03-25T06:31:11;16.77;;;7.10;;
20456;SDS011;10387;51.102;6.848;2024-03-25T06:34:35;13.83;;;7.40;;
20456;SDS011;10387;51.102;6.848;2024-03-25T06:37:25;14.07;;;7.07;;
20456;SDS011;10387;51.102;6.848;2024-03-25T06:40:23;13.83;;;6.73;;
20456;SDS011;10387;51.102;6.848;2024-03-25T06:43:16;16.37;;;8.00;;
20456;SDS011;10387;51.102;6.848;2024-03-25T06:46:07;13.33;;;6.53;;
20456;SDS011;10387;51.102;6.848;2024-03-25T06:48:56;16.37;;;7.60;;
20456;SDS011;10387;51.102;6.848;2024-03-25T06:51:51;17.03;;;7.93;;
20456;SDS011;10387;51.102;6.848;2024-03-25T06:54:42;11.27;;;6.60;;
20456;SDS011;10387;51.102;6.848;2024-03-25T06:57:33;12.27;;;6.80;;
20456;SDS011;10387;51.102;6.848;2024-03-25T07:00:26;13.80;;;6.50;;
20456;SDS011;10387;51.102;6.848;2024-03-25T07:03:19;15.97;;;6.93;;
20456;SDS011;10387;51.102;6.848;2024-03-25T07:06:07;12.83;;;6.43;;
20456;SDS011;10387;51.102;6.848;2024-03-25T07:12:13;10.23;;;5.87;;
20456;SDS011;10387;51.102;6.848;2024-03-25T07:15:05;15.40;;;7.00;;
20456;SDS011;10387;51.102;6.848;2024-03-25T07:18:00;11.03;;;6.47;;
20456;SDS011;10387;51.102;6.848;2024-03-25T07:20:56;16.67;;;6.50;;
20456;SDS011;10387;51.102;6.848;2024-03-25T07:23:47;15.33;;;7.43;;
20456;SDS011;10387;51.102;6.848;2024-03-25T07:26:40;12.70;;;6.17;;
20456;SDS011;10387;51.102;6.848;2024-03-25T07:29:42;11.57;;;6.80;;
20456;SDS011;10387;51.102;6.848;2024-03-25T07:32:32;12.37;;;6.73;;
20456;SDS011;10387;51.102;6.848;2024-03-25T07:35:22;11.83;;;6.20;;
20456;SDS011;10387;51.102;6.848;2024-03-25T07:38:21;11.33;;;5.53;;
20456;SDS011;10387;51.102;6.848;2024-03-25T07:41:24;8.97;;;5.87;;
20456;SDS011;10387;51.102;6.848;2024-03-25T07:44:18;16.43;;;5.77;;
20456;SDS011;10387;51.102;6.848;2024-03-25T07:47:47;11.40;;;5.67;;
20456;SDS011;10387;51.102;6.848;2024-03-25T07:51:17;13.77;;;5.97;;
20456;SDS011;10387;51.102;6.848;2024-03-25T07:54:11;12.03;;;5.70;;
20456;SDS011;10387;51.102;6.848;2024-03-25T08:01:11;10.03;;;5.60;;
20456;SDS011;10387;51.102;6.848;2024-03-25T08:04:15;15.50;;;6.10;;
20456;SDS011;10387;51.102;6.848;2024-03-25T08:07:39;20.27;;;5.77;;
20456;SDS011;10387;51.102;6.848;2024-03-25T08:11:22;10.40;;;5.43;;
20456;SDS011;10387;51.102;6.848;2024-03-25T08:14:16;10.40;;;5.63;;
20456;SDS011;10387;51.102;6.848;2024-03-25T08:17:07;13.20;;;5.73;;
20456;SDS011;10387;51.102;6.848;2024-03-25T09:24:41;11.60;;;4.13;;
20456;SDS011;10387;51.102;6.848;2024-03-25T10:21:09;7.83;;;4.10;;
20456;SDS011;10387;51.102;6.848;2024-03-25T10:24:04;7.13;;;3.80;;
20456;SDS011;10387;51.102;6.848;2024-03-25T10:27:05;5.63;;;3.93;;
20456;SDS011;10387;51.102;6.848;2024-03-25T10:29:54;8.60;;;4.00;;
20456;SDS011;10387;51.102;6.848;2024-03-25T10:32:43;10.93;;;4.37;;
20456;SDS011;10387;51.102;6.848;2024-03-25T10:35:34;6.57;;;3.80;;
20456;SDS011;10387;51.102;6.848;2024-03-25T10:38:22;8.37;;;3.90;;
20456;SDS011;10387;51.102;6.848;2024-03-25T10:41:14;7.97;;;4.43;;
20456;SDS011;10387;51.102;6.848;2024-03-25T10:44:07;7.63;;;3.70;;
20456;SDS011;10387;51.102;6.848;2024-03-25T10:47:03;9.43;;;3.90;;
20456;SDS011;10387;51.102;6.848;2024-03-25T10:52:41;10.53;;;3.97;;
20456;SDS011;10387;51.102;6.848;2024-03-25T10:55:28;5.17;;;4.20;;
20456;SDS011;10387;51.102;6.848;2024-03-25T10:58:18;7.33;;;4.13;;
20456;SDS011;10387;51.102;6.848;2024-03-25T11:01:07;7.33;;;4.03;;
20456;SDS011;10387;51.102;6.848;2024-03-25T11:04:03;6.87;;;3.97;;
20456;SDS011;10387;51.102;6.848;2024-03-25T11:06:52;7.83;;;3.83;;
20456;SDS011;10387;51.102;6.848;2024-03-25T11:09:41;10.33;;;5.13;;
20456;SDS011;10387;51.102;6.848;2024-03-25T11:12:32;7.87;;;4.43;;
20456;SDS011;10387;51.102;6.848;2024-03-25T11:15:20;6.13;;;4.10;;
20456;SDS011;10387;51.102;6.848;2024-03-25T11:18:10;8.53;;;4.10;;
20456;SDS011;10387;51.102;6.848;2024-03-25T11:21:02;8.13;;;7.23;;
20456;SDS011;10387;51.102;6.848;2024-03-25T11:23:50;7.90;;;5.90;;
20456;SDS011;10387;51.102;6.848;2024-03-25T11:26:53;7.07;;;3.63;;
20456;SDS011;10387;51.102;6.848;2024-03-25T11:40:50;5.97;;;3.00;;
20456;SDS011;10387;51.102;6.848;2024-03-25T11:43:53;5.67;;;3.27;;
20456;SDS011;10387;51.102;6.848;2024-03-25T11:46:31;5.90;;;2.73;;
20456;SDS011;10387;51.102;6.848;2024-03-25T11:49:47;3.67;;;2.53;;
20456;SDS011;10387;51.102;6.848;2024-03-25T11:52:42;5.63;;;2.67;;
20456;SDS011;10387;51.102;6.848;2024-03-25T11:55:31;5.23;;;2.37;;
20456;SDS011;10387;51.102;6.848;2024-03-25T11:58:28;4.10;;;2.50;;
20456;SDS011;10387;51.102;6.848;2024-03-25T12:04:26;3.07;;;2.20;;
20456;SDS011;10387;51.102;6.848;2024-03-25T12:07:16;4.93;;;2.30;;
20456;SDS011;10387;51.102;6.848;2024-03-25T12:10:15;5.03;;;2.37;;
20456;SDS011;10387;51.102;6.848;2024-03-25T12:13:41;4.07;;;2.47;;
20456;SDS011;10387;51.102;6.848;2024-03-25T12:17:06;5.40;;;2.60;;
20456;SDS011;10387;51.102;6.848;2024-03-25T12:28:27;3.73;;;2.60;;
20456;SDS011;10387;51.102;6.848;2024-03-25T12:31:29;3.17;;;2.17;;
20456;SDS011;10387;51.102;6.848;2024-03-25T14:22:40;5.10;;;2.47;;
20456;SDS011;10387;51.102;6.848;2024-03-25T14:26:00;7.40;;;2.93;;
20456;SDS011;10387;51.102;6.848;2024-03-25T14:53:39;4.33;;;2.67;;
20456;SDS011;10387;51.102;6.848;2024-03-25T16:08:41;3.97;;;1.60;;
20456;SDS011;10387;51.102;6.848;2024-03-25T16:41:59;1.70;;;1.60;;
20456;SDS011;10387;51.102;6.848;2024-03-25T16:44:51;2.33;;;1.60;;
20456;SDS011;10387;51.102;6.848;2024-03-25T16:48:25;1.80;;;1.37;;
20456;SDS011;10387;51.102;6.848;2024-03-25T16:52:12;2.60;;;1.50;;
20456;SDS011;10387;51.102;6.848;2024-03-25T17:05:57;4.20;;;1.80;;
20456;SDS011;10387;51.102;6.848;2024-03-25T17:09:38;2.40;;;1.40;;
20456;SDS011;10387;51.102;6.848;2024-03-25T17:21:06;2.43;;;1.70;;
20456;SDS011;10387;51.102;6.848;2024-03-25T17:24:02;2.17;;;1.83;;
20456;SDS011;10387;51.102;6.848;2024-03-25T17:29:21;3.23;;;1.93;;
20456;SDS011;10387;51.102;6.848;2024-03-25T17:32:16;3.10;;;1.90;;
20456;SDS011;10387;51.102;6.848;2024-03-25T17:35:34;2.33;;;1.60;;
20456;SDS011;10387;51.102;6.848;2024-03-25T17:38:44;3.47;;;1.80;;
20456;SDS011;10387;51.102;6.848;2024-03-25T17:41:39;5.97;;;3.90;;
20456;SDS011;10387;51.102;6.848;2024-03-25T17:44:55;6.47;;;4.20;;
20456;SDS011;10387;51.102;6.848;2024-03-25T17:47:44;7.00;;;3.20;;
20456;SDS011;10387;51.102;6.848;2024-03-25T17:54:06;5.10;;;2.30;;
20456;SDS011;10387;51.102;6.848;2024-03-25T17:57:19;3.33;;;1.87;;
20456;SDS011;10387;51.102;6.848;2024-03-25T18:00:17;3.90;;;2.67;;
20456;SDS011;10387;51.102;6.848;2024-03-25T18:03:06;4.67;;;2.70;;
20456;SDS011;10387;51.102;6.848;2024-03-25T18:09:36;2.47;;;1.83;;
20456;SDS011;10387;51.102;6.848;2024-03-25T18:12:30;3.03;;;1.60;;
20456;SDS011;10387;51.102;6.848;2024-03-25T18:15:50;2.43;;;1.80;;
20456;SDS011;10387;51.102;6.848;2024-03-25T18:22:39;3.23;;;1.73;;
20456;SDS011;10387;51.102;6.848;2024-03-25T18:25:26;3.47;;;2.10;;
20456;SDS011;10387;51.102;6.848;2024-03-25T18:28:16;4.23;;;1.87;;
20456;SDS011;10387;51.102;6.848;2024-03-25T18:40:36;4.13;;;1.97;;
20456;SDS011;10387;51.102;6.848;2024-03-25T18:43:24;3.07;;;1.83;;
20456;SDS011;10387;51.102;6.848;2024-03-25T18:49:49;1.50;;;1.40;;
20456;SDS011;10387;51.102;6.848;2024-03-25T18:53:06;4.17;;;2.30;;
20456;SDS011;10387;51.102;6.848;2024-03-25T18:56:16;4.83;;;2.27;;
20456;SDS011;10387;51.102;6.848;2024-03-25T18:59:20;4.23;;;2.60;;
20456;SDS011;10387;51.102;6.848;2024-03-25T19:02:11;2.93;;;2.50;;
20456;SDS011;10387;51.102;6.848;2024-03-25T19:08:28;3.47;;;2.60;;
20456;SDS011;10387;51.102;6.848;2024-03-25T19:11:52;3.83;;;2.27;;
20456;SDS011;10387;51.102;6.848;2024-03-25T19:15:08;3.67;;;2.23;;
20456;SDS011;10387;51.102;6.848;2024-03-25T19:18:01;4.03;;;2.40;;
20456;SDS011;10387;51.102;6.848;2024-03-25T19:20:48;4.27;;;2.37;;
20456;SDS011;10387;51.102;6.848;2024-03-25T19:23:42;4.27;;;2.40;;
20456;SDS011;10387;51.102;6.848;2024-03-25T19:30:45;4.77;;;2.17;;
20456;SDS011;10387;51.102;6.848;2024-03-25T19:37:30;3.70;;;2.33;;
20456;SDS011;10387;51.102;6.848;2024-03-25T19:40:25;3.50;;;2.50;;
20456;SDS011;10387;51.102;6.848;2024-03-25T19:43:22;3.50;;;2.30;;
20456;SDS011;10387;51.102;6.848;2024-03-25T19:46:12;3.20;;;2.50;;
20456;SDS011;10387;51.102;6.848;2024-03-25T20:15:27;3.20;;;2.20;;
20456;SDS011;10387;51.102;6.848;2024-03-25T20:19:35;5.20;;;2.33;;
20456;SDS011;10387;51.102;6.848;2024-03-25T22:35:33;4.40;;;2.60;;
20456;SDS011;10387;51.102;6.848;2024-03-25T22:42:32;5.50;;;3.00;;
20456;SDS011;10387;51.102;6.848;2024-03-25T22:45:23;7.00;;;3.20;;
20456;SDS011;10387;51.102;6.848;2024-03-25T22:48:34;7.23;;;2.73;;
20456;SDS011;10387;51.102;6.848;2024-03-25T22:51:20;4.93;;;2.97;;
20456;SDS011;10387;51.102;6.848;2024-03-25T23:01:21;4.40;;;3.07;;
20456;SDS011;10387;51.102;6.848;2024-03-25T23:04:37;6.10;;;2.63;;
20456;SDS011;10387;51.102;6.848;2024-03-25T23:07:23;4.00;;;2.87;;
20456;SDS011;10387;51.102;6.848;2024-03-25T23:10:10;4.50;;;2.70;;
20456;SDS011;10387;51.102;6.848;2024-03-25T23:16:57;3.93;;;2.47;;
20456;SDS011;10387;51.102;6.848;2024-03-25T23:23:52;6.03;;;2.87;;
20456;SDS011;10387;51.102;6.848;2024-03-25T23:26:39;2.80;;;2.27;;
20456;SDS011;10387;51.102;6.848;2024-03-25T23:29:30;3.97;;;2.73;;
20456;SDS011;10387;51.102;6.848;2024-03-25T23:36:07;3.67;;;3.30;;
20456;SDS011;10387;51.102;6.848;2024-03-25T23:39:00;4.13;;;2.67;;
20456;SDS011;10387;51.102;6.848;2024-03-25T23:41:51;4.27;;;2.63;;
20456;SDS011;10387;51.102;6.848;2024-03-25T23:59:41;5.10;;;2.80;;
